sensor_id;sensor_type;location;lat;lon;timestamp;temperature;humidity
14577;DHT22;7375;46.072;14.470;2022-09-27T00:00:40;18.60;86.20
14577;DHT22;7375;46.072;14.470;2022-09-27T00:03:08;18.60;86.10
14577;DHT22;7375;46.072;14.470;2022-09-27T00:05:35;18.70;86.20
14577;DHT22;7375;46.072;14.470;2022-09-27T00:08:02;18.70;86.20
14577;DHT22;7375;46.072;14.470;2022-09-27T00:10:29;18.70;86.30
14577;DHT22;7375;46.072;14.470;2022-09-27T00:12:56;18.60;86.00
14577;DHT22;7375;46.072;14.470;2022-09-27T00:15:23;18.70;86.20
14577;DHT22;7375;46.072;14.470;2022-09-27T00:17:50;18.60;86.00
14577;DHT22;7375;46.072;14.470;2022-09-27T00:20:20;18.70;86.10
14577;DHT22;7375;46.072;14.470;2022-09-27T00:22:47;18.70;86.10
14577;DHT22;7375;46.072;14.470;2022-09-27T00:25:14;18.60;86.10
14577;DHT22;7375;46.072;14.470;2022-09-27T00:27:41;18.70;86.20
14577;DHT22;7375;46.072;14.470;2022-09-27T00:30:08;18.60;86.10
14577;DHT22;7375;46.072;14.470;2022-09-27T00:32:35;18.70;86.20
14577;DHT22;7375;46.072;14.470;2022-09-27T00:35:02;18.60;86.10
14577;DHT22;7375;46.072;14.470;2022-09-27T00:37:30;18.60;86.10
14577;DHT22;7375;46.072;14.470;2022-09-27T00:39:57;18.70;86.30
14577;DHT22;7375;46.072;14.470;2022-09-27T00:42:24;18.70;86.20
14577;DHT22;7375;46.072;14.470;2022-09-27T00:47:38;18.70;86.20
14577;DHT22;7375;46.072;14.470;2022-09-27T00:50:08;18.60;86.20
14577;DHT22;7375;46.072;14.470;2022-09-27T00:52:41;18.70;86.20
14577;DHT22;7375;46.072;14.470;2022-09-27T00:55:10;18.70;86.30
14577;DHT22;7375;46.072;14.470;2022-09-27T00:57:38;18.70;86.30
14577;DHT22;7375;46.072;14.470;2022-09-27T01:00:08;18.70;86.40
14577;DHT22;7375;46.072;14.470;2022-09-27T01:02:35;18.70;86.40
14577;DHT22;7375;46.072;14.470;2022-09-27T01:05:03;18.60;86.20
14577;DHT22;7375;46.072;14.470;2022-09-27T01:07:31;18.60;86.30
14577;DHT22;7375;46.072;14.470;2022-09-27T01:09:59;18.60;86.30
14577;DHT22;7375;46.072;14.470;2022-09-27T01:12:27;18.60;86.20
14577;DHT22;7375;46.072;14.470;2022-09-27T01:15:00;18.60;86.20
14577;DHT22;7375;46.072;14.470;2022-09-27T01:17:31;18.60;86.20
14577;DHT22;7375;46.072;14.470;2022-09-27T01:22:51;18.60;86.30
14577;DHT22;7375;46.072;14.470;2022-09-27T01:25:31;18.60;86.20
14577;DHT22;7375;46.072;14.470;2022-09-27T01:28:06;18.60;86.20
14577;DHT22;7375;46.072;14.470;2022-09-27T01:30:40;18.60;86.20
14577;DHT22;7375;46.072;14.470;2022-09-27T01:33:13;18.60;86.20
14577;DHT22;7375;46.072;14.470;2022-09-27T01:35:45;18.60;86.20
14577;DHT22;7375;46.072;14.470;2022-09-27T01:38:14;18.60;86.20
14577;DHT22;7375;46.072;14.470;2022-09-27T01:40:48;18.60;86.10
14577;DHT22;7375;46.072;14.470;2022-09-27T01:43:17;18.60;86.20
14577;DHT22;7375;46.072;14.470;2022-09-27T01:45:49;18.60;86.30
14577;DHT22;7375;46.072;14.470;2022-09-27T01:48:17;18.60;86.30
14577;DHT22;7375;46.072;14.470;2022-09-27T01:50:45;18.60;86.30
14577;DHT22;7375;46.072;14.470;2022-09-27T01:53:14;18.60;86.30
14577;DHT22;7375;46.072;14.470;2022-09-27T01:55:42;18.60;86.30
14577;DHT22;7375;46.072;14.470;2022-09-27T01:58:11;18.60;86.30
14577;DHT22;7375;46.072;14.470;2022-09-27T02:00:40;18.60;86.30
14577;DHT22;7375;46.072;14.470;2022-09-27T02:03:10;18.60;86.40
14577;DHT22;7375;46.072;14.470;2022-09-27T02:05:40;18.60;86.30
14577;DHT22;7375;46.072;14.470;2022-09-27T02:08:11;18.60;86.30
14577;DHT22;7375;46.072;14.470;2022-09-27T02:10:40;18.60;86.30
14577;DHT22;7375;46.072;14.470;2022-09-27T02:13:10;18.60;86.20
14577;DHT22;7375;46.072;14.470;2022-09-27T02:15:40;18.60;86.40
14577;DHT22;7375;46.072;14.470;2022-09-27T02:18:14;18.60;86.40
14577;DHT22;7375;46.072;14.470;2022-09-27T02:20:44;18.60;86.30
14577;DHT22;7375;46.072;14.470;2022-09-27T02:23:17;18.60;86.40
14577;DHT22;7375;46.072;14.470;2022-09-27T02:25:45;18.60;86.40
14577;DHT22;7375;46.072;14.470;2022-09-27T02:28:19;18.60;86.40
14577;DHT22;7375;46.072;14.470;2022-09-27T02:30:49;18.60;86.40
14577;DHT22;7375;46.072;14.470;2022-09-27T02:33:18;18.60;86.40
14577;DHT22;7375;46.072;14.470;2022-09-27T02:35:46;18.60;86.50
14577;DHT22;7375;46.072;14.470;2022-09-27T02:38:13;18.60;86.50
14577;DHT22;7375;46.072;14.470;2022-09-27T02:40:42;18.60;86.50
14577;DHT22;7375;46.072;14.470;2022-09-27T02:43:10;18.60;86.50
14577;DHT22;7375;46.072;14.470;2022-09-27T02:45:40;18.60;86.50
14577;DHT22;7375;46.072;14.470;2022-09-27T02:48:13;18.60;86.50
14577;DHT22;7375;46.072;14.470;2022-09-27T02:50:49;18.60;86.50
14577;DHT22;7375;46.072;14.470;2022-09-27T02:53:21;18.60;86.50
14577;DHT22;7375;46.072;14.470;2022-09-27T02:55:54;18.60;86.50
14577;DHT22;7375;46.072;14.470;2022-09-27T02:58:29;18.50;86.40
14577;DHT22;7375;46.072;14.470;2022-09-27T03:01:01;18.60;86.90
14577;DHT22;7375;46.072;14.470;2022-09-27T03:03:32;18.60;86.50
14577;DHT22;7375;46.072;14.470;2022-09-27T03:06:03;18.60;86.50
14577;DHT22;7375;46.072;14.470;2022-09-27T03:08:30;18.60;86.50
14577;DHT22;7375;46.072;14.470;2022-09-27T03:10:57;18.60;86.50
14577;DHT22;7375;46.072;14.470;2022-09-27T03:13:24;18.60;86.50
14577;DHT22;7375;46.072;14.470;2022-09-27T03:15:51;18.60;86.60
14577;DHT22;7375;46.072;14.470;2022-09-27T03:18:17;18.50;86.50
14577;DHT22;7375;46.072;14.470;2022-09-27T03:20:44;18.60;86.60
14577;DHT22;7375;46.072;14.470;2022-09-27T03:23:12;18.60;86.50
14577;DHT22;7375;46.072;14.470;2022-09-27T03:25:39;18.60;86.50
14577;DHT22;7375;46.072;14.470;2022-09-27T03:28:06;18.50;86.40
14577;DHT22;7375;46.072;14.470;2022-09-27T03:30:33;18.60;86.80
14577;DHT22;7375;46.072;14.470;2022-09-27T03:33:02;18.60;87.30
14577;DHT22;7375;46.072;14.470;2022-09-27T03:35:28;18.60;86.90
14577;DHT22;7375;46.072;14.470;2022-09-27T03:37:55;18.60;87.00
14577;DHT22;7375;46.072;14.470;2022-09-27T03:40:23;18.50;86.90
14577;DHT22;7375;46.072;14.470;2022-09-27T03:42:50;18.60;86.90
14577;DHT22;7375;46.072;14.470;2022-09-27T03:45:17;18.60;86.90
14577;DHT22;7375;46.072;14.470;2022-09-27T03:47:44;18.60;86.90
14577;DHT22;7375;46.072;14.470;2022-09-27T03:50:11;18.50;86.90
14577;DHT22;7375;46.072;14.470;2022-09-27T03:52:37;18.60;86.90
14577;DHT22;7375;46.072;14.470;2022-09-27T03:55:05;18.60;86.90
14577;DHT22;7375;46.072;14.470;2022-09-27T03:57:33;18.60;86.90
14577;DHT22;7375;46.072;14.470;2022-09-27T04:00:00;18.60;86.90
14577;DHT22;7375;46.072;14.470;2022-09-27T04:02:26;18.60;86.80
14577;DHT22;7375;46.072;14.470;2022-09-27T04:04:53;18.60;86.80
14577;DHT22;7375;46.072;14.470;2022-09-27T04:07:20;18.60;86.90
14577;DHT22;7375;46.072;14.470;2022-09-27T04:09:47;18.60;86.90
14577;DHT22;7375;46.072;14.470;2022-09-27T04:12:14;18.50;86.80
14577;DHT22;7375;46.072;14.470;2022-09-27T04:14:42;18.60;86.90
14577;DHT22;7375;46.072;14.470;2022-09-27T04:17:09;18.50;86.80
14577;DHT22;7375;46.072;14.470;2022-09-27T04:19:36;18.60;86.90
14577;DHT22;7375;46.072;14.470;2022-09-27T04:22:02;18.60;87.00
14577;DHT22;7375;46.072;14.470;2022-09-27T04:24:29;18.60;87.40
14577;DHT22;7375;46.072;14.470;2022-09-27T04:26:56;18.50;86.70
14577;DHT22;7375;46.072;14.470;2022-09-27T04:29:25;18.50;86.80
14577;DHT22;7375;46.072;14.470;2022-09-27T04:31:53;18.50;86.80
14577;DHT22;7375;46.072;14.470;2022-09-27T04:34:20;18.50;86.70
14577;DHT22;7375;46.072;14.470;2022-09-27T04:37:08;18.50;86.80
14577;DHT22;7375;46.072;14.470;2022-09-27T04:39:34;18.50;86.80
14577;DHT22;7375;46.072;14.470;2022-09-27T04:42:01;18.50;86.80
14577;DHT22;7375;46.072;14.470;2022-09-27T04:44:28;18.50;86.80
14577;DHT22;7375;46.072;14.470;2022-09-27T04:46:56;18.50;86.80
14577;DHT22;7375;46.072;14.470;2022-09-27T04:49:23;18.50;86.80
14577;DHT22;7375;46.072;14.470;2022-09-27T04:51:49;18.50;87.00
14577;DHT22;7375;46.072;14.470;2022-09-27T04:54:16;18.50;86.90
14577;DHT22;7375;46.072;14.470;2022-09-27T04:56:43;18.50;86.80
14577;DHT22;7375;46.072;14.470;2022-09-27T04:59:10;18.50;86.90
14577;DHT22;7375;46.072;14.470;2022-09-27T05:01:36;18.50;86.90
14577;DHT22;7375;46.072;14.470;2022-09-27T05:04:05;18.60;86.90
14577;DHT22;7375;46.072;14.470;2022-09-27T05:06:32;18.50;86.90
14577;DHT22;7375;46.072;14.470;2022-09-27T05:08:58;18.50;86.80
14577;DHT22;7375;46.072;14.470;2022-09-27T05:11:26;18.50;86.80
14577;DHT22;7375;46.072;14.470;2022-09-27T05:13:52;18.50;86.90
14577;DHT22;7375;46.072;14.470;2022-09-27T05:16:19;18.50;86.90
14577;DHT22;7375;46.072;14.470;2022-09-27T05:18:46;18.50;86.90
14577;DHT22;7375;46.072;14.470;2022-09-27T05:21:14;18.50;86.90
14577;DHT22;7375;46.072;14.470;2022-09-27T05:23:41;18.50;86.90
14577;DHT22;7375;46.072;14.470;2022-09-27T05:26:07;18.50;87.00
14577;DHT22;7375;46.072;14.470;2022-09-27T05:28:34;18.50;86.90
14577;DHT22;7375;46.072;14.470;2022-09-27T05:31:01;18.50;87.10
14577;DHT22;7375;46.072;14.470;2022-09-27T05:33:28;18.50;87.00
14577;DHT22;7375;46.072;14.470;2022-09-27T05:35:59;18.50;87.10
14577;DHT22;7375;46.072;14.470;2022-09-27T05:38:30;18.50;87.50
14577;DHT22;7375;46.072;14.470;2022-09-27T05:40:57;18.60;87.90
14577;DHT22;7375;46.072;14.470;2022-09-27T05:43:24;18.60;88.30
14577;DHT22;7375;46.072;14.470;2022-09-27T05:45:52;18.70;88.10
14577;DHT22;7375;46.072;14.470;2022-09-27T05:48:19;18.70;87.80
14577;DHT22;7375;46.072;14.470;2022-09-27T05:50:46;18.70;88.10
14577;DHT22;7375;46.072;14.470;2022-09-27T05:53:13;18.70;87.70
14577;DHT22;7375;46.072;14.470;2022-09-27T05:55:41;18.80;88.20
14577;DHT22;7375;46.072;14.470;2022-09-27T05:58:09;18.70;87.50
14577;DHT22;7375;46.072;14.470;2022-09-27T06:00:37;18.70;87.60
14577;DHT22;7375;46.072;14.470;2022-09-27T06:03:04;18.70;87.80
14577;DHT22;7375;46.072;14.470;2022-09-27T06:05:35;18.70;88.10
14577;DHT22;7375;46.072;14.470;2022-09-27T06:08:04;18.70;88.10
14577;DHT22;7375;46.072;14.470;2022-09-27T06:10:31;18.70;88.20
14577;DHT22;7375;46.072;14.470;2022-09-27T06:12:59;18.70;88.40
14577;DHT22;7375;46.072;14.470;2022-09-27T06:15:26;18.70;87.80
14577;DHT22;7375;46.072;14.470;2022-09-27T06:17:55;18.70;87.60
14577;DHT22;7375;46.072;14.470;2022-09-27T06:20:24;18.70;87.40
14577;DHT22;7375;46.072;14.470;2022-09-27T06:22:51;18.70;87.20
14577;DHT22;7375;46.072;14.470;2022-09-27T06:25:18;18.70;87.00
14577;DHT22;7375;46.072;14.470;2022-09-27T06:27:47;18.70;86.90
14577;DHT22;7375;46.072;14.470;2022-09-27T06:30:15;18.70;86.70
14577;DHT22;7375;46.072;14.470;2022-09-27T06:32:42;18.70;86.60
14577;DHT22;7375;46.072;14.470;2022-09-27T06:35:09;18.70;86.80
14577;DHT22;7375;46.072;14.470;2022-09-27T06:37:36;18.70;86.70
14577;DHT22;7375;46.072;14.470;2022-09-27T06:40:03;18.70;86.50
14577;DHT22;7375;46.072;14.470;2022-09-27T06:42:29;18.70;86.40
14577;DHT22;7375;46.072;14.470;2022-09-27T06:44:56;18.70;86.30
14577;DHT22;7375;46.072;14.470;2022-09-27T06:47:26;18.70;86.30
14577;DHT22;7375;46.072;14.470;2022-09-27T06:49:53;18.70;86.10
14577;DHT22;7375;46.072;14.470;2022-09-27T06:52:21;18.70;86.00
14577;DHT22;7375;46.072;14.470;2022-09-27T06:54:47;18.70;85.90
14577;DHT22;7375;46.072;14.470;2022-09-27T06:57:14;18.70;85.70
14577;DHT22;7375;46.072;14.470;2022-09-27T07:00:01;18.70;85.60
14577;DHT22;7375;46.072;14.470;2022-09-27T07:02:46;18.70;85.50
14577;DHT22;7375;46.072;14.470;2022-09-27T07:05:13;18.70;85.40
14577;DHT22;7375;46.072;14.470;2022-09-27T07:07:40;18.70;85.30
14577;DHT22;7375;46.072;14.470;2022-09-27T07:10:08;18.70;85.30
14577;DHT22;7375;46.072;14.470;2022-09-27T07:12:35;18.70;85.10
14577;DHT22;7375;46.072;14.470;2022-09-27T07:15:02;18.70;85.00
14577;DHT22;7375;46.072;14.470;2022-09-27T07:17:29;18.70;85.00
14577;DHT22;7375;46.072;14.470;2022-09-27T07:19:57;18.70;84.80
14577;DHT22;7375;46.072;14.470;2022-09-27T07:22:24;18.70;84.70
14577;DHT22;7375;46.072;14.470;2022-09-27T07:24:51;18.70;84.60
14577;DHT22;7375;46.072;14.470;2022-09-27T07:27:17;18.70;84.50
14577;DHT22;7375;46.072;14.470;2022-09-27T07:29:44;18.70;84.30
14577;DHT22;7375;46.072;14.470;2022-09-27T07:32:11;18.70;84.30
14577;DHT22;7375;46.072;14.470;2022-09-27T07:34:38;18.80;84.30
14577;DHT22;7375;46.072;14.470;2022-09-27T07:37:06;18.70;84.10
14577;DHT22;7375;46.072;14.470;2022-09-27T07:39:33;18.80;84.60
14577;DHT22;7375;46.072;14.470;2022-09-27T07:42:00;18.80;84.50
14577;DHT22;7375;46.072;14.470;2022-09-27T07:44:29;18.80;84.60
14577;DHT22;7375;46.072;14.470;2022-09-27T07:46:56;18.80;84.70
14577;DHT22;7375;46.072;14.470;2022-09-27T07:49:22;18.80;84.60
14577;DHT22;7375;46.072;14.470;2022-09-27T07:51:50;18.80;84.50
14577;DHT22;7375;46.072;14.470;2022-09-27T07:54:18;18.80;84.70
14577;DHT22;7375;46.072;14.470;2022-09-27T07:56:45;18.80;84.60
14577;DHT22;7375;46.072;14.470;2022-09-27T07:59:12;18.80;84.60
14577;DHT22;7375;46.072;14.470;2022-09-27T08:01:38;18.80;84.60
14577;DHT22;7375;46.072;14.470;2022-09-27T08:04:05;18.80;84.40
14577;DHT22;7375;46.072;14.470;2022-09-27T08:06:32;18.80;84.40
14577;DHT22;7375;46.072;14.470;2022-09-27T08:08:59;18.90;84.20
14577;DHT22;7375;46.072;14.470;2022-09-27T08:11:29;18.90;83.80
14577;DHT22;7375;46.072;14.470;2022-09-27T08:13:56;18.90;83.90
14577;DHT22;7375;46.072;14.470;2022-09-27T08:16:23;18.90;83.70
14577;DHT22;7375;46.072;14.470;2022-09-27T08:18:49;18.90;83.90
14577;DHT22;7375;46.072;14.470;2022-09-27T08:21:16;18.90;83.90
14577;DHT22;7375;46.072;14.470;2022-09-27T08:23:43;18.90;83.90
14577;DHT22;7375;46.072;14.470;2022-09-27T08:26:10;18.90;84.00
14577;DHT22;7375;46.072;14.470;2022-09-27T08:28:38;18.90;84.10
14577;DHT22;7375;46.072;14.470;2022-09-27T08:31:05;18.90;84.10
14577;DHT22;7375;46.072;14.470;2022-09-27T08:33:31;18.90;84.20
14577;DHT22;7375;46.072;14.470;2022-09-27T08:35:58;18.90;84.10
14577;DHT22;7375;46.072;14.470;2022-09-27T08:38:26;18.90;83.90
14577;DHT22;7375;46.072;14.470;2022-09-27T08:40:53;18.90;83.80
14577;DHT22;7375;46.072;14.470;2022-09-27T08:43:27;19.00;83.40
14577;DHT22;7375;46.072;14.470;2022-09-27T08:46:01;19.00;83.00
14577;DHT22;7375;46.072;14.470;2022-09-27T08:48:29;19.00;82.60
14577;DHT22;7375;46.072;14.470;2022-09-27T08:50:57;19.00;82.50
14577;DHT22;7375;46.072;14.470;2022-09-27T08:53:24;19.00;82.30
14577;DHT22;7375;46.072;14.470;2022-09-27T08:55:53;19.10;82.20
14577;DHT22;7375;46.072;14.470;2022-09-27T08:58:22;19.10;82.00
14577;DHT22;7375;46.072;14.470;2022-09-27T09:00:50;19.10;82.00
14577;DHT22;7375;46.072;14.470;2022-09-27T09:03:21;19.00;81.80
14577;DHT22;7375;46.072;14.470;2022-09-27T09:05:51;19.00;81.80
14577;DHT22;7375;46.072;14.470;2022-09-27T09:08:25;19.00;81.80
14577;DHT22;7375;46.072;14.470;2022-09-27T09:10:56;19.00;81.70
14577;DHT22;7375;46.072;14.470;2022-09-27T09:13:48;19.00;81.80
14577;DHT22;7375;46.072;14.470;2022-09-27T09:16:21;19.00;81.80
14577;DHT22;7375;46.072;14.470;2022-09-27T09:18:59;19.00;81.90
14577;DHT22;7375;46.072;14.470;2022-09-27T09:21:34;18.90;81.70
14577;DHT22;7375;46.072;14.470;2022-09-27T09:24:28;18.90;81.70
14577;DHT22;7375;46.072;14.470;2022-09-27T09:27:01;19.00;81.80
14577;DHT22;7375;46.072;14.470;2022-09-27T09:29:41;18.90;81.70
14577;DHT22;7375;46.072;14.470;2022-09-27T09:32:15;18.90;81.70
14577;DHT22;7375;46.072;14.470;2022-09-27T09:34:52;19.00;81.80
14577;DHT22;7375;46.072;14.470;2022-09-27T09:37:22;18.90;81.60
14577;DHT22;7375;46.072;14.470;2022-09-27T09:39:57;18.90;81.60
14577;DHT22;7375;46.072;14.470;2022-09-27T09:42:25;18.90;81.60
14577;DHT22;7375;46.072;14.470;2022-09-27T09:44:55;18.90;81.60
14577;DHT22;7375;46.072;14.470;2022-09-27T09:47:29;18.90;81.60
14577;DHT22;7375;46.072;14.470;2022-09-27T09:49:59;18.90;81.60
14577;DHT22;7375;46.072;14.470;2022-09-27T09:52:28;18.90;81.60
14577;DHT22;7375;46.072;14.470;2022-09-27T09:55:00;18.90;81.70
14577;DHT22;7375;46.072;14.470;2022-09-27T09:57:30;18.90;81.60
14577;DHT22;7375;46.072;14.470;2022-09-27T09:59:59;18.90;81.60
14577;DHT22;7375;46.072;14.470;2022-09-27T10:02:28;18.90;81.60
14577;DHT22;7375;46.072;14.470;2022-09-27T10:04:56;18.90;81.50
14577;DHT22;7375;46.072;14.470;2022-09-27T10:07:24;18.90;81.50
14577;DHT22;7375;46.072;14.470;2022-09-27T10:09:52;18.90;81.50
14577;DHT22;7375;46.072;14.470;2022-09-27T10:12:23;18.80;81.40
14577;DHT22;7375;46.072;14.470;2022-09-27T10:15:04;18.80;81.40
14577;DHT22;7375;46.072;14.470;2022-09-27T10:17:33;18.80;81.70
14577;DHT22;7375;46.072;14.470;2022-09-27T10:20:05;18.80;81.70
14577;DHT22;7375;46.072;14.470;2022-09-27T10:22:37;18.80;82.10
14577;DHT22;7375;46.072;14.470;2022-09-27T10:25:10;18.80;82.30
14577;DHT22;7375;46.072;14.470;2022-09-27T10:27:39;18.80;82.50
14577;DHT22;7375;46.072;14.470;2022-09-27T10:30:20;18.80;82.70
14577;DHT22;7375;46.072;14.470;2022-09-27T10:32:53;18.80;82.80
14577;DHT22;7375;46.072;14.470;2022-09-27T10:35:34;18.80;82.80
14577;DHT22;7375;46.072;14.470;2022-09-27T10:38:25;18.80;82.80
14577;DHT22;7375;46.072;14.470;2022-09-27T10:40:55;18.80;82.80
14577;DHT22;7375;46.072;14.470;2022-09-27T10:43:27;18.80;82.90
14577;DHT22;7375;46.072;14.470;2022-09-27T10:46:09;18.80;83.00
14577;DHT22;7375;46.072;14.470;2022-09-27T10:48:38;18.80;83.10
14577;DHT22;7375;46.072;14.470;2022-09-27T10:51:21;18.80;82.90
14577;DHT22;7375;46.072;14.470;2022-09-27T10:53:53;18.80;82.80
14577;DHT22;7375;46.072;14.470;2022-09-27T10:56:38;18.80;82.70
14577;DHT22;7375;46.072;14.470;2022-09-27T10:59:05;18.90;82.60
14577;DHT22;7375;46.072;14.470;2022-09-27T11:04:14;18.90;82.10
14577;DHT22;7375;46.072;14.470;2022-09-27T11:06:43;18.90;82.10
14577;DHT22;7375;46.072;14.470;2022-09-27T11:09:16;18.90;82.10
14577;DHT22;7375;46.072;14.470;2022-09-27T11:11:45;18.90;82.10
14577;DHT22;7375;46.072;14.470;2022-09-27T11:14:17;18.90;81.90
14577;DHT22;7375;46.072;14.470;2022-09-27T11:19:46;18.90;82.10
14577;DHT22;7375;46.072;14.470;2022-09-27T11:22:25;18.90;82.10
14577;DHT22;7375;46.072;14.470;2022-09-27T11:25:09;18.90;82.10
14577;DHT22;7375;46.072;14.470;2022-09-27T11:27:43;19.00;82.10
14577;DHT22;7375;46.072;14.470;2022-09-27T11:30:14;19.00;82.10
14577;DHT22;7375;46.072;14.470;2022-09-27T11:32:46;19.00;82.10
14577;DHT22;7375;46.072;14.470;2022-09-27T11:35:32;19.00;82.00
14577;DHT22;7375;46.072;14.470;2022-09-27T11:38:07;19.00;82.00
14577;DHT22;7375;46.072;14.470;2022-09-27T11:40:44;19.00;81.70
14577;DHT22;7375;46.072;14.470;2022-09-27T11:43:19;19.10;81.50
14577;DHT22;7375;46.072;14.470;2022-09-27T11:45:57;19.10;81.40
14577;DHT22;7375;46.072;14.470;2022-09-27T11:48:28;19.20;81.10
14577;DHT22;7375;46.072;14.470;2022-09-27T11:53:57;19.20;80.90
14577;DHT22;7375;46.072;14.470;2022-09-27T11:56:33;19.20;81.00
14577;DHT22;7375;46.072;14.470;2022-09-27T11:59:07;19.20;81.10
14577;DHT22;7375;46.072;14.470;2022-09-27T12:01:39;19.20;80.90
14577;DHT22;7375;46.072;14.470;2022-09-27T12:04:17;19.20;80.70
14577;DHT22;7375;46.072;14.470;2022-09-27T12:06:47;19.20;80.60
14577;DHT22;7375;46.072;14.470;2022-09-27T12:09:16;19.20;80.70
14577;DHT22;7375;46.072;14.470;2022-09-27T12:11:48;19.20;80.80
14577;DHT22;7375;46.072;14.470;2022-09-27T12:14:18;19.20;80.90
14577;DHT22;7375;46.072;14.470;2022-09-27T12:16:47;19.20;81.00
14577;DHT22;7375;46.072;14.470;2022-09-27T12:19:17;19.20;81.00
14577;DHT22;7375;46.072;14.470;2022-09-27T12:21:45;19.20;81.00
14577;DHT22;7375;46.072;14.470;2022-09-27T12:24:14;19.20;81.00
14577;DHT22;7375;46.072;14.470;2022-09-27T12:26:43;19.20;81.00
14577;DHT22;7375;46.072;14.470;2022-09-27T12:29:13;19.20;80.80
14577;DHT22;7375;46.072;14.470;2022-09-27T12:31:45;19.20;80.70
14577;DHT22;7375;46.072;14.470;2022-09-27T12:34:13;19.20;80.70
14577;DHT22;7375;46.072;14.470;2022-09-27T12:36:42;19.20;80.80
14577;DHT22;7375;46.072;14.470;2022-09-27T12:39:13;19.20;80.70
14577;DHT22;7375;46.072;14.470;2022-09-27T12:41:43;19.20;80.80
14577;DHT22;7375;46.072;14.470;2022-09-27T12:44:12;19.10;80.70
14577;DHT22;7375;46.072;14.470;2022-09-27T12:46:43;19.20;80.90
14577;DHT22;7375;46.072;14.470;2022-09-27T12:49:13;19.10;81.00
14577;DHT22;7375;46.072;14.470;2022-09-27T12:51:43;19.20;81.00
14577;DHT22;7375;46.072;14.470;2022-09-27T12:57:10;19.20;81.00
14577;DHT22;7375;46.072;14.470;2022-09-27T12:59:47;19.20;81.40
14577;DHT22;7375;46.072;14.470;2022-09-27T13:02:22;19.20;81.70
14577;DHT22;7375;46.072;14.470;2022-09-27T13:05:04;19.20;82.20
14577;DHT22;7375;46.072;14.470;2022-09-27T13:07:38;19.20;82.80
14577;DHT22;7375;46.072;14.470;2022-09-27T13:10:25;19.20;82.40
14577;DHT22;7375;46.072;14.470;2022-09-27T13:12:59;19.20;82.40
14577;DHT22;7375;46.072;14.470;2022-09-27T13:15:30;19.20;82.60
14577;DHT22;7375;46.072;14.470;2022-09-27T13:17:58;19.20;82.60
14577;DHT22;7375;46.072;14.470;2022-09-27T13:20:39;19.20;82.50
14577;DHT22;7375;46.072;14.470;2022-09-27T13:25:54;19.20;82.50
14577;DHT22;7375;46.072;14.470;2022-09-27T13:28:30;19.20;82.60
14577;DHT22;7375;46.072;14.470;2022-09-27T13:30:59;19.20;82.30
14577;DHT22;7375;46.072;14.470;2022-09-27T13:36:15;19.20;82.40
14577;DHT22;7375;46.072;14.470;2022-09-27T13:38:50;19.20;82.40
14577;DHT22;7375;46.072;14.470;2022-09-27T13:41:19;19.20;82.50
14577;DHT22;7375;46.072;14.470;2022-09-27T13:43:56;19.20;82.50
14577;DHT22;7375;46.072;14.470;2022-09-27T13:46:30;19.20;82.40
14577;DHT22;7375;46.072;14.470;2022-09-27T13:49:00;19.20;82.30
14577;DHT22;7375;46.072;14.470;2022-09-27T13:51:35;19.20;82.30
14577;DHT22;7375;46.072;14.470;2022-09-27T13:54:09;19.20;82.20
14577;DHT22;7375;46.072;14.470;2022-09-27T13:56:53;19.20;82.20
14577;DHT22;7375;46.072;14.470;2022-09-27T13:59:24;19.20;82.10
14577;DHT22;7375;46.072;14.470;2022-09-27T14:01:54;19.20;82.10
14577;DHT22;7375;46.072;14.470;2022-09-27T14:04:22;19.20;82.00
14577;DHT22;7375;46.072;14.470;2022-09-27T14:06:52;19.20;81.90
14577;DHT22;7375;46.072;14.470;2022-09-27T14:09:23;19.20;81.90
14577;DHT22;7375;46.072;14.470;2022-09-27T14:11:52;19.20;81.80
14577;DHT22;7375;46.072;14.470;2022-09-27T14:14:21;19.20;81.80
14577;DHT22;7375;46.072;14.470;2022-09-27T14:16:48;19.20;81.80
14577;DHT22;7375;46.072;14.470;2022-09-27T14:19:17;19.20;81.90
14577;DHT22;7375;46.072;14.470;2022-09-27T14:21:44;19.20;81.80
14577;DHT22;7375;46.072;14.470;2022-09-27T14:24:19;19.20;82.00
14577;DHT22;7375;46.072;14.470;2022-09-27T14:26:46;19.20;83.10
14577;DHT22;7375;46.072;14.470;2022-09-27T14:29:16;19.20;83.90
14577;DHT22;7375;46.072;14.470;2022-09-27T14:31:43;19.30;84.50
14577;DHT22;7375;46.072;14.470;2022-09-27T14:34:12;19.40;85.30
14577;DHT22;7375;46.072;14.470;2022-09-27T14:36:40;19.30;85.10
14577;DHT22;7375;46.072;14.470;2022-09-27T14:39:27;19.30;85.90
14577;DHT22;7375;46.072;14.470;2022-09-27T14:41:56;19.30;85.70
14577;DHT22;7375;46.072;14.470;2022-09-27T14:44:24;19.20;86.00
14577;DHT22;7375;46.072;14.470;2022-09-27T14:47:06;19.20;86.60
14577;DHT22;7375;46.072;14.470;2022-09-27T14:49:33;19.20;86.90
14577;DHT22;7375;46.072;14.470;2022-09-27T14:52:01;19.20;86.80
14577;DHT22;7375;46.072;14.470;2022-09-27T14:54:28;19.20;86.80
14577;DHT22;7375;46.072;14.470;2022-09-27T14:56:56;19.20;86.10
14577;DHT22;7375;46.072;14.470;2022-09-27T14:59:25;19.20;86.50
14577;DHT22;7375;46.072;14.470;2022-09-27T15:01:55;19.20;86.80
14577;DHT22;7375;46.072;14.470;2022-09-27T15:04:24;19.20;86.60
14577;DHT22;7375;46.072;14.470;2022-09-27T15:06:55;19.30;86.90
14577;DHT22;7375;46.072;14.470;2022-09-27T15:09:23;19.20;86.30
14577;DHT22;7375;46.072;14.470;2022-09-27T15:11:52;19.20;86.00
14577;DHT22;7375;46.072;14.470;2022-09-27T15:14:20;19.20;86.60
14577;DHT22;7375;46.072;14.470;2022-09-27T15:16:48;19.20;86.80
14577;DHT22;7375;46.072;14.470;2022-09-27T15:19:16;19.20;87.10
14577;DHT22;7375;46.072;14.470;2022-09-27T15:21:48;19.20;87.10
14577;DHT22;7375;46.072;14.470;2022-09-27T15:27:02;19.20;86.60
14577;DHT22;7375;46.072;14.470;2022-09-27T15:29:29;19.20;86.20
14577;DHT22;7375;46.072;14.470;2022-09-27T15:31:59;19.10;85.80
14577;DHT22;7375;46.072;14.470;2022-09-27T15:34:28;19.10;86.20
14577;DHT22;7375;46.072;14.470;2022-09-27T15:36:57;19.10;86.40
14577;DHT22;7375;46.072;14.470;2022-09-27T15:39:26;19.10;86.30
14577;DHT22;7375;46.072;14.470;2022-09-27T15:42:01;19.00;86.20
14577;DHT22;7375;46.072;14.470;2022-09-27T15:44:36;19.00;86.20
14577;DHT22;7375;46.072;14.470;2022-09-27T15:47:04;19.00;86.40
14577;DHT22;7375;46.072;14.470;2022-09-27T15:49:31;19.00;86.50
14577;DHT22;7375;46.072;14.470;2022-09-27T15:52:01;19.00;86.50
14577;DHT22;7375;46.072;14.470;2022-09-27T15:54:29;19.00;86.50
14577;DHT22;7375;46.072;14.470;2022-09-27T15:57:00;19.00;86.70
14577;DHT22;7375;46.072;14.470;2022-09-27T15:59:30;19.00;86.60
14577;DHT22;7375;46.072;14.470;2022-09-27T16:02:09;19.00;86.70
14577;DHT22;7375;46.072;14.470;2022-09-27T16:04:38;19.00;86.90
14577;DHT22;7375;46.072;14.470;2022-09-27T16:07:04;19.00;87.10
14577;DHT22;7375;46.072;14.470;2022-09-27T16:09:33;19.00;87.40
14577;DHT22;7375;46.072;14.470;2022-09-27T16:12:00;18.90;87.70